KOGS Airport Information

Runway Information
Runway 09 Length 5200 ft width 150 ft
Elevation 286 ft Threshold 0 ft Heading 76
Runway 27 Length 5200 ft Width 150 ft
Elevation 297 ft Threshold 0 ft Heading 256
Airport Frequencies
Type AWOS Name AWOS 3 Frequency 118.525 MHZ
Type CNTR Name BOSTON CNT Frequency 135.25 MHZ
Type RDO Name BURLINGTON Frequency 122.4 MHZ
Type UNIC Name CTAF/UNICO Frequency 122.8 MHZ
Airport Navaids
Airport Weather Information & NOTAM
ADDS - METARS form results

(1655 UTC 15 July 2020)
Data provider http://aviationweather.gov/metar/data/
 
METAR text: KOGS 151635Z AUTO VRB06KT 10SM CLR 26/15 A3017 RMK AO2
Conditions at: KOGS (OGDENSBURG INTL , NY, US) observed 1635 UTC 15 July 2020
Temperature: 26.0°C (79°F)
Dewpoint: 15.0°C (59°F) [RH = 51%]
Pressure (altimeter): 30.17 inches Hg (1021.8 mb)
Winds: variable direction winds at 7 MPH (6 knots; 3.1 m/s)
Visibility: 10 or more miles (16+ km)
Ceiling: at least 12,000 feet AGL
Clouds: sky clear below 12,000 feet AGL
Weather: automated observation with no human augmentation;
there may or may not be significant weather present at this time

METAR text: KOGS 151615Z AUTO VRB05KT 10SM CLR 26/15 A3017 RMK AO2
Conditions at: KOGS (OGDENSBURG INTL , NY, US) observed 1615 UTC 15 July 2020
Temperature: 26.0°C (79°F)
Dewpoint: 15.0°C (59°F) [RH = 51%]
Pressure (altimeter): 30.17 inches Hg (1021.8 mb)
Winds: variable direction winds at 6 MPH (5 knots; 2.6 m/s)
Visibility: 10 or more miles (16+ km)
Ceiling: at least 12,000 feet AGL
Clouds: sky clear below 12,000 feet AGL
Weather: automated observation with no human augmentation;
there may or may not be significant weather present at this time